createdAt,value
2023-08-14T00:01:36.046Z,95511.38
2023-08-14T00:04:04.230Z,95505.81
2023-08-14T00:06:32.191Z,95508.13
2023-08-14T00:09:00.133Z,95508.59
2023-08-14T00:11:28.390Z,95497.81
2023-08-14T00:13:58.494Z,95494.28
2023-08-14T00:16:27.669Z,95502.72
2023-08-14T00:18:55.784Z,95494.50
2023-08-14T00:21:24.959Z,95480.06
2023-08-14T00:23:53.022Z,95478.41
2023-08-14T00:26:20.981Z,95478.25
2023-08-14T00:28:48.872Z,95464.19
2023-08-14T00:31:19.098Z,95458.38
2023-08-14T00:33:47.127Z,95463.53
2023-08-14T00:36:15.221Z,95457.09
2023-08-14T00:38:43.187Z,95462.31
2023-08-14T00:41:12.105Z,95467.56
2023-08-14T00:43:40.096Z,95466.72
2023-08-14T00:46:09.292Z,95462.03
2023-08-14T00:48:38.739Z,95460.22
2023-08-14T00:51:07.377Z,95468.59
2023-08-14T00:53:37.584Z,95461.38
2023-08-14T00:56:07.260Z,95454.66
2023-08-14T00:58:36.384Z,95465.06
2023-08-14T01:01:05.019Z,95451.41
2023-08-14T01:03:35.478Z,95454.66
2023-08-14T01:06:04.982Z,95447.00
2023-08-14T01:08:35.351Z,95442.75
2023-08-14T01:11:13.927Z,95440.06
2023-08-14T01:13:50.439Z,95444.06
2023-08-14T01:16:22.971Z,95441.66
2023-08-14T01:18:55.257Z,95426.00
2023-08-14T01:21:49.093Z,95430.03
2023-08-14T01:24:28.346Z,95435.97
2023-08-14T01:26:58.564Z,95423.78
2023-08-14T01:29:26.830Z,95422.69
2023-08-14T01:31:54.734Z,95421.00
2023-08-14T01:34:23.006Z,95416.69
2023-08-14T01:36:59.493Z,95419.94
2023-08-14T01:39:36.671Z,95431.97
2023-08-14T01:42:20.072Z,95425.78
2023-08-14T01:44:58.023Z,95425.13
2023-08-14T01:47:30.460Z,95432.66
2023-08-14T01:50:00.371Z,95425.28
2023-08-14T01:52:28.497Z,95427.16
2023-08-14T01:55:00.853Z,95421.84
2023-08-14T01:57:31.201Z,95426.44
2023-08-14T02:00:00.136Z,95430.25
2023-08-14T02:02:28.263Z,95433.41
2023-08-14T02:04:56.257Z,95428.59
2023-08-14T02:07:24.354Z,95433.06
2023-08-14T02:09:52.312Z,95431.97
2023-08-14T02:12:20.618Z,95421.59
2023-08-14T02:14:49.979Z,95428.03
2023-08-14T02:17:19.537Z,95427.53
2023-08-14T02:19:47.654Z,95431.78
2023-08-14T02:22:15.866Z,95432.03
2023-08-14T02:24:44.240Z,95436.88
2023-08-14T02:27:12.220Z,95433.06
2023-08-14T02:29:40.183Z,95433.06
2023-08-14T02:32:11.587Z,95435.25
2023-08-14T02:34:47.728Z,95438.13
2023-08-14T02:37:17.879Z,95456.03
2023-08-14T02:39:46.449Z,95451.34
2023-08-14T02:42:18.010Z,95446.69
2023-08-14T02:44:47.711Z,95462.09
2023-08-14T02:47:17.071Z,95456.09
2023-08-14T02:49:45.079Z,95446.19
2023-08-14T02:52:13.187Z,95449.91
2023-08-14T02:54:41.127Z,95462.59
2023-08-14T02:57:09.085Z,95464.09
2023-08-14T02:59:36.994Z,95464.53
2023-08-14T03:02:04.980Z,95461.31
2023-08-14T03:04:34.314Z,95455.06
2023-08-14T03:07:02.261Z,95455.97
2023-08-14T03:09:30.215Z,95451.25
2023-08-14T03:11:58.151Z,95432.72
2023-08-14T03:14:26.098Z,95429.25
2023-08-14T03:16:54.093Z,95430.09
2023-08-14T03:19:22.087Z,95425.38
2023-08-14T03:21:52.227Z,95426.97
2023-08-14T03:24:20.489Z,95416.75
2023-08-14T03:26:50.595Z,95415.25
2023-08-14T03:29:19.051Z,95412.81
2023-08-14T03:31:48.012Z,95408.34
2023-08-14T03:34:15.932Z,95405.75
2023-08-14T03:36:44.482Z,95404.81
2023-08-14T03:39:14.872Z,95415.25
2023-08-14T03:41:42.863Z,95409.13
2023-08-14T03:44:10.902Z,95394.19
2023-08-14T03:46:39.960Z,95405.06
2023-08-14T03:49:07.963Z,95405.41
2023-08-14T03:51:37.907Z,95407.50
2023-08-14T03:54:07.514Z,95414.09
2023-08-14T03:56:36.820Z,95409.59
2023-08-14T03:59:06.003Z,95405.16
2023-08-14T04:01:34.175Z,95402.84
2023-08-14T04:04:03.157Z,95400.19
2023-08-14T04:06:31.311Z,95396.22
2023-08-14T04:09:02.343Z,95395.94
2023-08-14T04:11:31.763Z,95398.59
2023-08-14T04:14:01.043Z,95391.69
2023-08-14T04:16:42.341Z,95394.63
2023-08-14T04:19:10.805Z,95389.59
2023-08-14T04:21:38.795Z,95389.00
2023-08-14T04:24:07.892Z,95398.59
2023-08-14T04:26:37.716Z,95394.59
2023-08-14T04:29:08.519Z,95391.97
2023-08-14T04:31:36.979Z,95392.72
2023-08-14T04:34:06.690Z,95398.28
2023-08-14T04:36:37.157Z,95402.28
2023-08-14T04:39:08.524Z,95394.44
2023-08-14T04:41:38.144Z,95399.81
2023-08-14T04:44:07.624Z,95405.25
2023-08-14T04:46:49.464Z,95421.53
2023-08-14T04:49:22.332Z,95435.13
2023-08-14T04:51:50.300Z,95445.78
2023-08-14T04:54:20.414Z,95447.41
2023-08-14T04:56:48.491Z,95449.56
2023-08-14T04:59:18.851Z,95454.38
2023-08-14T05:01:47.182Z,95469.94
2023-08-14T05:04:16.145Z,95464.69
2023-08-14T05:06:44.260Z,95467.22
2023-08-14T05:09:25.692Z,95475.38
2023-08-14T05:11:54.230Z,95465.25
2023-08-14T05:14:23.510Z,95462.47
2023-08-14T05:16:53.133Z,95478.72
2023-08-14T05:19:22.149Z,95476.47
2023-08-14T05:21:50.235Z,95467.28
2023-08-14T05:24:18.241Z,95471.78
2023-08-14T05:26:46.313Z,95466.63
2023-08-14T05:29:14.297Z,95483.66
2023-08-14T05:31:43.610Z,95481.50
2023-08-14T05:34:11.644Z,95494.72
2023-08-14T05:36:39.603Z,95485.13
2023-08-14T05:39:09.646Z,95485.25
2023-08-14T05:41:37.590Z,95481.09
2023-08-14T05:44:06.613Z,95484.88
2023-08-14T05:46:34.669Z,95484.72
2023-08-14T05:49:04.318Z,95493.75
2023-08-14T05:51:34.001Z,95491.16
2023-08-14T05:54:02.044Z,95496.03
2023-08-14T05:56:29.993Z,95492.56
2023-08-14T05:58:59.031Z,95492.03
2023-08-14T06:01:27.598Z,95494.72
2023-08-14T06:03:56.051Z,95490.38
2023-08-14T06:06:25.574Z,95489.28
2023-08-14T06:08:53.561Z,95478.38
2023-08-14T06:11:21.561Z,95479.78
2023-08-14T06:13:49.550Z,95478.94
2023-08-14T06:16:17.672Z,95475.53
2023-08-14T06:18:45.848Z,95480.56
2023-08-14T06:21:13.838Z,95475.03
2023-08-14T06:23:43.272Z,95475.84
2023-08-14T06:26:11.362Z,95476.72
2023-08-14T06:28:39.342Z,95478.03
2023-08-14T06:31:07.375Z,95478.19
2023-08-14T06:33:37.941Z,95476.25
2023-08-14T06:36:07.609Z,95473.72
2023-08-14T06:38:36.330Z,95478.19
2023-08-14T06:41:05.595Z,95480.38
2023-08-14T06:43:33.734Z,95481.63
2023-08-14T06:46:01.714Z,95475.31
2023-08-14T06:48:30.306Z,95467.72
2023-08-14T06:50:59.966Z,95460.16
2023-08-14T06:53:27.945Z,95460.56
2023-08-14T06:55:56.738Z,95460.84
2023-08-14T06:58:26.071Z,95465.09
2023-08-14T07:00:54.736Z,95464.41
2023-08-14T07:03:22.983Z,95462.22
2023-08-14T07:05:50.973Z,95463.44
2023-08-14T07:08:18.919Z,95467.84
2023-08-14T07:10:46.837Z,95467.00
2023-08-14T07:13:14.776Z,95460.41
2023-08-14T07:15:46.274Z,95460.84
2023-08-14T07:18:15.594Z,95473.91
2023-08-14T07:20:44.386Z,95469.38
2023-08-14T07:23:13.429Z,95458.94
2023-08-14T07:25:41.434Z,95468.22
2023-08-14T07:28:09.867Z,95473.63
2023-08-14T07:30:39.973Z,95464.31
2023-08-14T07:33:11.539Z,95454.97
2023-08-14T07:35:40.076Z,95464.31
2023-08-14T07:38:08.056Z,95460.81
2023-08-14T07:40:36.068Z,95456.59
2023-08-14T07:43:04.108Z,95457.88
2023-08-14T07:45:32.157Z,95457.25
2023-08-14T07:48:00.183Z,95462.97
2023-08-14T07:50:29.493Z,95468.97
2023-08-14T07:52:57.453Z,95470.19
2023-08-14T07:55:25.646Z,95469.31
2023-08-14T07:57:53.548Z,95475.72
2023-08-14T08:00:22.225Z,95470.66
2023-08-14T08:02:50.202Z,95471.00
2023-08-14T08:05:20.619Z,95474.25
2023-08-14T08:07:52.505Z,95473.06
2023-08-14T08:10:21.119Z,95470.31
2023-08-14T08:12:51.663Z,95467.59
2023-08-14T08:15:19.896Z,95463.66
2023-08-14T08:17:47.945Z,95464.19
2023-08-14T08:20:16.237Z,95452.25
2023-08-14T08:22:44.207Z,95451.22
2023-08-14T08:25:13.659Z,95452.94
2023-08-14T08:27:41.610Z,95449.97
2023-08-14T08:30:10.686Z,95451.56
2023-08-14T08:32:40.079Z,95444.34
2023-08-14T08:35:08.963Z,95444.50
2023-08-14T08:37:37.007Z,95442.25
2023-08-14T08:40:07.514Z,95443.69
2023-08-14T08:42:37.442Z,95440.28
2023-08-14T08:45:06.898Z,95440.34
2023-08-14T08:47:41.216Z,95438.97
2023-08-14T08:50:10.784Z,95444.69
2023-08-14T08:52:41.314Z,95443.53
2023-08-14T08:55:10.375Z,95443.69
2023-08-14T08:57:40.807Z,95448.13
2023-08-14T09:00:10.144Z,95453.44
2023-08-14T09:02:38.315Z,95450.03
2023-08-14T09:05:06.804Z,95445.97
2023-08-14T09:07:35.135Z,95448.63
2023-08-14T09:10:03.118Z,95454.53
2023-08-14T09:12:32.454Z,95447.75
2023-08-14T09:15:10.462Z,95447.91
2023-08-14T09:17:38.532Z,95443.53
2023-08-14T09:20:19.173Z,95439.41
2023-08-14T09:22:58.300Z,95436.59
2023-08-14T09:25:26.782Z,95442.63
2023-08-14T09:27:55.881Z,95441.00
2023-08-14T09:30:27.342Z,95434.41
2023-08-14T09:32:56.500Z,95429.75
2023-08-14T09:35:24.898Z,95424.16
2023-08-14T09:37:52.839Z,95420.59
2023-08-14T09:40:20.821Z,95424.88
2023-08-14T09:42:50.459Z,95429.75
2023-08-14T09:45:24.610Z,95426.34
2023-08-14T09:48:01.599Z,95414.94
2023-08-14T09:50:30.566Z,95418.88
2023-08-14T09:53:00.055Z,95417.75
2023-08-14T09:55:29.391Z,95408.34
2023-08-14T09:57:57.729Z,95409.03
2023-08-14T10:00:33.065Z,95417.00
2023-08-14T10:03:05.042Z,95409.06
2023-08-14T10:05:34.443Z,95408.81
2023-08-14T10:08:04.406Z,95418.47
2023-08-14T10:10:34.458Z,95413.19
2023-08-14T10:13:06.734Z,95417.19
2023-08-14T10:15:38.831Z,95413.56
2023-08-14T10:18:14.935Z,95401.59
2023-08-14T10:20:47.358Z,95399.81
2023-08-14T10:23:18.544Z,95400.47
2023-08-14T10:25:48.567Z,95397.56
2023-08-14T10:28:17.284Z,95391.34
2023-08-14T10:30:46.229Z,95392.94
2023-08-14T10:33:18.611Z,95391.56
2023-08-14T10:35:50.929Z,95383.53
2023-08-14T10:38:25.339Z,95381.94
2023-08-14T10:40:57.782Z,95397.16
2023-08-14T10:43:31.062Z,95390.06
2023-08-14T10:45:59.196Z,95377.06
2023-08-14T10:48:36.424Z,95378.06
2023-08-14T10:51:04.788Z,95375.44
2023-08-14T10:53:33.881Z,95371.03
2023-08-14T10:56:01.982Z,95372.03
2023-08-14T10:58:48.651Z,95371.06
2023-08-14T11:01:18.920Z,95373.25
2023-08-14T11:04:05.399Z,95373.63
2023-08-14T11:07:06.382Z,95370.91
2023-08-14T11:09:36.080Z,95370.03
2023-08-14T11:12:07.360Z,95376.22
2023-08-14T11:14:38.455Z,95368.03
2023-08-14T11:17:07.316Z,95368.81
2023-08-14T11:19:37.637Z,95370.91
2023-08-14T11:22:06.509Z,95365.00
2023-08-14T11:24:34.819Z,95361.91
2023-08-14T11:27:03.309Z,95361.09
2023-08-14T11:29:33.050Z,95366.94
2023-08-14T11:32:02.519Z,95360.88
2023-08-14T11:34:33.502Z,95358.16
2023-08-14T11:37:07.938Z,95358.91
2023-08-14T11:39:36.812Z,95353.53
2023-08-14T11:42:05.747Z,95359.34
2023-08-14T11:44:34.948Z,95361.97
2023-08-14T11:47:04.440Z,95357.19
2023-08-14T11:49:33.441Z,95351.72
2023-08-14T11:52:05.263Z,95361.13
2023-08-14T11:54:34.438Z,95360.06
2023-08-14T11:57:03.641Z,95363.25
2023-08-14T11:59:31.655Z,95352.41
2023-08-14T12:01:59.891Z,95360.69
2023-08-14T12:04:27.905Z,95353.41
2023-08-14T12:06:56.408Z,95353.69
2023-08-14T12:09:29.517Z,95354.56
2023-08-14T12:11:57.605Z,95346.25
2023-08-14T12:14:25.638Z,95347.34
2023-08-14T12:16:53.590Z,95342.47
2023-08-14T12:19:22.429Z,95337.69
2023-08-14T12:21:57.557Z,95334.34
2023-08-14T12:24:25.533Z,95322.84
2023-08-14T12:26:55.333Z,95328.84
2023-08-14T12:29:24.418Z,95323.69
2023-08-14T12:31:53.666Z,95314.28
2023-08-14T12:34:22.613Z,95318.13
2023-08-14T12:36:50.766Z,95317.56
2023-08-14T12:39:18.696Z,95311.66
2023-08-14T12:41:46.669Z,95324.13
2023-08-14T12:44:16.410Z,95316.88
2023-08-14T12:46:44.428Z,95309.47
2023-08-14T12:49:12.448Z,95323.34
2023-08-14T12:51:42.427Z,95320.69
2023-08-14T12:54:12.566Z,95315.56
2023-08-14T12:56:42.841Z,95312.25
2023-08-14T12:59:12.315Z,95306.91
2023-08-14T13:01:47.248Z,95308.94
2023-08-14T13:04:15.971Z,95312.44
2023-08-14T13:06:45.368Z,95321.31
2023-08-14T13:09:13.841Z,95310.47
2023-08-14T13:11:42.184Z,95310.22
2023-08-14T13:14:10.170Z,95309.53
2023-08-14T13:16:38.179Z,95309.94
2023-08-14T13:19:07.576Z,95318.16
2023-08-14T13:21:35.532Z,95308.75
2023-08-14T13:24:04.095Z,95307.59
2023-08-14T13:26:34.558Z,95310.00
2023-08-14T13:29:04.862Z,95312.31
2023-08-14T13:31:33.212Z,95306.88
2023-08-14T13:34:01.224Z,95313.44
2023-08-14T13:36:30.531Z,95311.03
2023-08-14T13:38:58.769Z,95310.22
2023-08-14T13:41:26.738Z,95310.84
2023-08-14T13:43:54.891Z,95320.50
2023-08-14T13:46:22.868Z,95315.94
2023-08-14T13:48:51.205Z,95309.09
2023-08-14T13:51:19.320Z,95311.31
2023-08-14T13:53:48.737Z,95315.97
2023-08-14T13:56:17.413Z,95306.63
2023-08-14T13:58:45.501Z,95308.66
2023-08-14T14:01:13.417Z,95303.88
2023-08-14T14:03:42.260Z,95311.28
2023-08-14T14:06:11.143Z,95305.81
2023-08-14T14:08:39.204Z,95302.66
2023-08-14T14:11:08.601Z,95307.78
2023-08-14T14:13:36.699Z,95306.31
2023-08-14T14:16:05.136Z,95304.66
2023-08-14T14:18:33.070Z,95308.84
2023-08-14T14:21:01.045Z,95305.75
2023-08-14T14:23:29.054Z,95302.72
2023-08-14T14:25:57.071Z,95304.19
2023-08-14T14:28:29.679Z,95303.13
2023-08-14T14:30:58.274Z,95306.19
2023-08-14T14:33:26.268Z,95300.81
2023-08-14T14:35:54.317Z,95305.75
2023-08-14T14:38:22.282Z,95296.75
2023-08-14T14:40:50.196Z,95302.84
2023-08-14T14:43:18.163Z,95302.41
2023-08-14T14:45:47.545Z,95296.75
2023-08-14T14:48:15.564Z,95300.47
2023-08-14T14:50:43.481Z,95302.13
2023-08-14T14:53:13.287Z,95297.72
2023-08-14T14:55:41.197Z,95293.13
2023-08-14T14:58:09.209Z,95290.50
2023-08-14T15:00:37.322Z,95292.47
2023-08-14T15:03:07.631Z,95289.63
2023-08-14T15:05:36.379Z,95271.66
2023-08-14T15:08:04.517Z,95274.56
2023-08-14T15:10:33.460Z,95281.34
2023-08-14T15:13:01.448Z,95272.50
2023-08-14T15:15:29.379Z,95275.63
2023-08-14T15:17:57.357Z,95268.50
2023-08-14T15:20:26.693Z,95266.66
2023-08-14T15:22:54.710Z,95270.81
2023-08-14T15:25:23.421Z,95268.56
2023-08-14T15:27:51.857Z,95271.38
2023-08-14T15:30:19.825Z,95266.09
2023-08-14T15:32:48.241Z,95267.00
2023-08-14T15:35:16.789Z,95269.56
2023-08-14T15:37:46.345Z,95268.03
2023-08-14T15:40:14.994Z,95258.38
2023-08-14T15:42:43.425Z,95263.28
2023-08-14T15:45:14.251Z,95267.41
2023-08-14T15:47:42.766Z,95260.75
2023-08-14T15:50:11.258Z,95261.06
2023-08-14T15:52:39.657Z,95263.13
2023-08-14T15:55:10.260Z,95265.06
2023-08-14T15:57:38.435Z,95265.59
2023-08-14T16:00:08.152Z,95257.84
2023-08-14T16:02:36.595Z,95259.75
2023-08-14T16:05:05.185Z,95261.81
2023-08-14T16:07:33.130Z,95265.53
2023-08-14T16:10:01.109Z,95265.41
2023-08-14T16:12:30.412Z,95266.34
2023-08-14T16:15:00.535Z,95261.00
2023-08-14T16:17:29.622Z,95258.28
2023-08-14T16:19:57.773Z,95258.06
2023-08-14T16:22:25.758Z,95259.69
2023-08-14T16:24:53.819Z,95263.31
2023-08-14T16:27:22.025Z,95260.81
2023-08-14T16:29:51.479Z,95268.53
2023-08-14T16:32:19.439Z,95256.41
2023-08-14T16:34:48.624Z,95253.44
2023-08-14T16:37:16.800Z,95248.16
2023-08-14T16:39:44.955Z,95252.31
2023-08-14T16:42:13.087Z,95246.94
2023-08-14T16:44:42.275Z,95259.16
2023-08-14T16:47:11.603Z,95260.56
2023-08-14T16:49:39.596Z,95262.69
2023-08-14T16:52:07.913Z,95267.13
2023-08-14T16:54:35.825Z,95267.44
2023-08-14T16:57:04.360Z,95276.25
2023-08-14T16:59:32.317Z,95277.78
2023-08-14T17:02:00.264Z,95277.34
2023-08-14T17:04:29.694Z,95278.19
2023-08-14T17:06:57.653Z,95277.81
2023-08-14T17:09:25.824Z,95278.56
2023-08-14T17:11:53.917Z,95273.03
2023-08-14T17:14:21.969Z,95279.69
2023-08-14T17:16:51.447Z,95270.84
2023-08-14T17:19:19.862Z,95275.13
2023-08-14T17:21:50.670Z,95276.19
2023-08-14T17:24:19.065Z,95278.25
2023-08-14T17:26:46.995Z,95280.53
2023-08-14T17:29:15.473Z,95276.69
2023-08-14T17:31:43.493Z,95276.59
2023-08-14T17:34:11.444Z,95286.25
2023-08-14T17:36:39.382Z,95282.75
2023-08-14T17:39:09.990Z,95284.66
2023-08-14T17:41:38.198Z,95282.22
2023-08-14T17:44:06.378Z,95282.13
2023-08-14T17:46:34.391Z,95287.50
2023-08-14T17:49:02.307Z,95288.66
2023-08-14T17:51:30.262Z,95281.28
2023-08-14T17:53:58.204Z,95278.50
2023-08-14T17:56:27.497Z,95276.50
2023-08-14T17:58:55.452Z,95275.59
2023-08-14T18:01:23.418Z,95279.38
2023-08-14T18:03:51.593Z,95275.38
2023-08-14T18:06:19.710Z,95276.00
2023-08-14T18:08:47.664Z,95277.81
2023-08-14T18:11:15.600Z,95280.38
2023-08-14T18:13:44.946Z,95289.09
2023-08-14T18:16:13.094Z,95283.16
2023-08-14T18:18:41.222Z,95285.34
2023-08-14T18:21:09.190Z,95284.91
2023-08-14T18:23:37.229Z,95288.34
2023-08-14T18:26:05.202Z,95282.00
2023-08-14T18:28:33.136Z,95286.09
2023-08-14T18:31:02.481Z,95287.84
2023-08-14T18:33:30.453Z,95291.06
2023-08-14T18:35:58.429Z,95294.91
2023-08-14T18:38:26.872Z,95296.47
2023-08-14T18:40:58.632Z,95294.47
2023-08-14T18:43:27.170Z,95298.88
2023-08-14T18:45:56.417Z,95297.66
2023-08-14T18:48:25.750Z,95301.53
2023-08-14T18:50:53.663Z,95300.47
2023-08-14T18:53:21.918Z,95309.19
2023-08-14T18:55:50.257Z,95310.53
2023-08-14T18:58:18.180Z,95309.38
2023-08-14T19:00:46.550Z,95303.97
2023-08-14T19:03:14.504Z,95313.66
2023-08-14T19:05:44.697Z,95312.44
2023-08-14T19:08:12.984Z,95314.00
2023-08-14T19:10:41.214Z,95316.84
2023-08-14T19:13:09.124Z,95322.91
2023-08-14T19:15:37.063Z,95318.66
2023-08-14T19:18:05.733Z,95321.03
2023-08-14T19:20:33.696Z,95330.25
2023-08-14T19:23:03.077Z,95325.94
2023-08-14T19:25:30.971Z,95327.41
2023-08-14T19:28:02.551Z,95323.22
2023-08-14T19:30:39.454Z,95327.91
2023-08-14T19:33:07.418Z,95330.50
2023-08-14T19:35:35.858Z,95330.31
2023-08-14T19:38:05.684Z,95338.75
2023-08-14T19:40:37.134Z,95341.78
2023-08-14T19:43:05.482Z,95341.31
2023-08-14T19:45:34.498Z,95342.75
2023-08-14T19:48:02.491Z,95335.66
2023-08-14T19:50:30.530Z,95335.88
2023-08-14T19:52:59.998Z,95331.16
2023-08-14T19:55:29.485Z,95334.72
2023-08-14T19:57:57.497Z,95348.53
2023-08-14T20:00:26.073Z,95343.13
2023-08-14T20:02:54.271Z,95339.31
2023-08-14T20:05:23.125Z,95344.81
2023-08-14T20:07:51.196Z,95339.53
2023-08-14T20:10:19.176Z,95339.69
2023-08-14T20:12:48.412Z,95327.88
2023-08-14T20:15:16.522Z,95343.00
2023-08-14T20:17:44.522Z,95339.84
2023-08-14T20:20:18.200Z,95345.22
2023-08-14T20:22:46.121Z,95339.94
2023-08-14T20:25:14.307Z,95343.34
2023-08-14T20:27:42.317Z,95341.03
2023-08-14T20:30:12.952Z,95345.44
2023-08-14T20:32:40.894Z,95344.16
2023-08-14T20:35:09.589Z,95348.09
2023-08-14T20:37:37.484Z,95344.94
2023-08-14T20:40:06.913Z,95343.84
2023-08-14T20:42:34.803Z,95344.19
2023-08-14T20:45:03.008Z,95330.06
2023-08-14T20:47:33.798Z,95338.63
2023-08-14T20:50:01.755Z,95341.31
2023-08-14T20:52:29.784Z,95337.94
2023-08-14T20:54:57.886Z,95337.94
2023-08-14T20:57:25.832Z,95333.75
2023-08-14T20:59:53.868Z,95332.38
2023-08-14T21:02:21.911Z,95333.66
2023-08-14T21:04:51.324Z,95335.78
2023-08-14T21:07:19.446Z,95331.84
2023-08-14T21:09:47.490Z,95334.22
2023-08-14T21:12:15.460Z,95331.22
2023-08-14T21:14:43.399Z,95331.81
2023-08-14T21:17:11.321Z,95335.31
2023-08-14T21:19:39.244Z,95335.16
2023-08-14T21:22:08.606Z,95337.09
2023-08-14T21:24:36.514Z,95336.03
2023-08-14T21:27:04.653Z,95337.41
2023-08-14T21:29:32.583Z,95333.13
2023-08-14T21:32:00.540Z,95327.88
2023-08-14T21:34:30.263Z,95331.34
2023-08-14T21:36:58.235Z,95328.72
2023-08-14T21:39:27.524Z,95324.31
2023-08-14T21:41:55.485Z,95315.31
2023-08-14T21:44:23.409Z,95321.16
2023-08-14T21:46:51.412Z,95325.25
2023-08-14T21:49:19.393Z,95326.84
2023-08-14T21:51:47.375Z,95321.13
2023-08-14T21:54:18.834Z,95325.41
2023-08-14T21:56:48.418Z,95317.66
2023-08-14T21:59:16.456Z,95318.16
2023-08-14T22:01:45.615Z,95318.00
2023-08-14T22:04:13.769Z,95322.25
2023-08-14T22:06:41.726Z,95320.03
2023-08-14T22:09:09.978Z,95318.31
2023-08-14T22:11:39.058Z,95316.75
2023-08-14T22:14:09.443Z,95322.13
2023-08-14T22:16:37.447Z,95318.31
2023-08-14T22:19:05.772Z,95315.78
2023-08-14T22:21:33.707Z,95317.53
2023-08-14T22:24:01.752Z,95323.56
2023-08-14T22:26:29.742Z,95326.25
2023-08-14T22:28:57.753Z,95316.63
2023-08-14T22:31:27.145Z,95318.53
2023-08-14T22:33:55.098Z,95323.91
2023-08-14T22:36:23.056Z,95320.44
2023-08-14T22:38:51.006Z,95319.81
2023-08-14T22:41:19.618Z,95316.47
2023-08-14T22:43:47.573Z,95318.25
2023-08-14T22:46:15.610Z,95310.66
2023-08-14T22:48:44.933Z,95320.44
2023-08-14T22:51:13.620Z,95306.25
2023-08-14T22:53:42.387Z,95306.44
2023-08-14T22:56:10.399Z,95309.81
2023-08-14T22:58:38.388Z,95314.25
2023-08-14T23:01:06.394Z,95307.47
2023-08-14T23:03:34.350Z,95316.94
2023-08-14T23:06:03.671Z,95311.44
2023-08-14T23:08:31.610Z,95314.44
2023-08-14T23:10:59.512Z,95311.59
2023-08-14T23:13:27.431Z,95318.69
2023-08-14T23:15:55.379Z,95321.53
2023-08-14T23:18:23.485Z,95318.53
2023-08-14T23:20:51.604Z,95314.72
2023-08-14T23:23:20.884Z,95309.53
2023-08-14T23:25:48.827Z,95312.69
2023-08-14T23:28:16.897Z,95314.59
2023-08-14T23:30:44.840Z,95313.81
2023-08-14T23:33:12.805Z,95319.19
2023-08-14T23:35:40.898Z,95320.75
2023-08-14T23:38:08.832Z,95321.38
2023-08-14T23:40:38.149Z,95323.13
2023-08-14T23:43:06.061Z,95318.38
2023-08-14T23:45:34.003Z,95325.63
2023-08-14T23:48:02.388Z,95327.72
2023-08-14T23:50:30.461Z,95317.25
2023-08-14T23:52:58.389Z,95317.75
2023-08-14T23:55:26.494Z,95316.78
2023-08-14T23:57:56.465Z,95315.84
